Time;durP1;ratioP1;P1;durP2;ratioP2;P2;SDS_P1;SDS_P2;PMS_P1;PMS_P2;Temp;Humidity;BMP_temperature;BMP_pressure;BME280_temperature;BME280_humidity;BME280_pressure;Samples;Min_cycle;Max_cycle;Signal;HPM_P1;HPM_P2
2021/01/21 00:00:55;;;;;;;1.83;0.80;;;10.20;77.80;;;;;;2072008;28;20518;-83
2021/01/21 00:01:56;;;;;;;2.00;0.77;;;10.20;77.90;;;;;;2078503;28;20040;-83
2021/01/21 00:02:56;;;;;;;3.45;0.70;;;10.20;77.80;;;;;;2080210;28;20021;-83
2021/01/21 00:03:57;;;;;;;2.65;0.80;;;10.20;77.80;;;;;;2080249;28;20033;-83
2021/01/21 00:04:57;;;;;;;1.45;0.60;;;10.10;77.80;;;;;;2076104;28;20056;-83
2021/01/21 00:05:58;;;;;;;3.15;0.90;;;10.10;77.80;;;;;;2080519;28;20022;-83
2021/01/21 00:06:59;;;;;;;2.15;0.70;;;10.10;77.80;;;;;;2080554;28;20033;-83
2021/01/21 00:07:59;;;;;;;2.60;0.70;;;10.10;77.80;;;;;;2088905;28;20030;-82
2021/01/21 00:09:00;;;;;;;1.73;0.75;;;10.10;77.80;;;;;;2071951;28;20132;-82
2021/01/21 00:10:01;;;;;;;1.77;0.88;;;10.10;77.80;;;;;;2063457;28;20056;-82
2021/01/21 00:11:01;;;;;;;2.47;0.80;;;10.20;77.80;;;;;;2088317;28;20025;-82
2021/01/21 00:12:02;;;;;;;2.30;0.70;;;10.20;77.80;;;;;;2095268;28;20461;-83
2021/01/21 00:13:03;;;;;;;1.98;0.68;;;10.20;77.70;;;;;;2088041;28;20033;-82
2021/01/21 00:14:03;;;;;;;2.28;0.73;;;10.20;77.70;;;;;;2080910;28;20057;-82
2021/01/21 00:15:04;;;;;;;1.98;0.75;;;10.20;77.70;;;;;;2088621;28;20037;-82
2021/01/21 00:16:05;;;;;;;2.35;0.80;;;10.20;77.70;;;;;;2079485;28;20061;-82
2021/01/21 00:17:06;;;;;;;2.70;0.68;;;10.20;77.60;;;;;;2087479;28;20441;-82
2021/01/21 00:18:07;;;;;;;2.58;0.60;;;10.20;77.60;;;;;;2088650;28;20033;-82
2021/01/21 00:19:07;;;;;;;2.53;0.80;;;10.20;77.30;;;;;;2058633;28;20039;-82
2021/01/21 00:20:12;;;;;;;2.75;0.88;;;10.20;77.40;;;;;;2056139;28;20023;-82
2021/01/21 00:21:12;;;;;;;1.98;0.70;;;10.30;77.50;;;;;;2073340;28;20038;-82
2021/01/21 00:22:13;;;;;;;1.20;0.80;;;10.30;77.40;;;;;;2086584;28;20039;-82
2021/01/21 00:23:14;;;;;;;1.60;0.60;;;10.20;77.40;;;;;;2080158;28;20037;-83
2021/01/21 00:24:14;;;;;;;1.35;0.60;;;10.30;77.50;;;;;;2079165;28;20542;-83
2021/01/21 00:25:15;;;;;;;4.28;0.80;;;10.30;77.40;;;;;;2089166;28;20143;-82
2021/01/21 00:26:16;;;;;;;1.70;0.80;;;10.20;77.30;;;;;;2081240;28;20061;-82
2021/01/21 00:27:16;;;;;;;2.60;0.80;;;10.30;77.40;;;;;;2082914;28;20049;-83
2021/01/21 00:28:18;;;;;;;1.52;0.57;;;10.30;77.40;;;;;;2090071;28;20036;-82
2021/01/21 00:29:19;;;;;;;2.33;0.70;;;10.20;77.40;;;;;;2087420;28;20458;-82
2021/01/21 00:30:20;;;;;;;3.15;1.10;;;10.20;77.30;;;;;;2074887;28;20038;-82
2021/01/21 00:31:21;;;;;;;1.90;0.70;;;10.20;77.30;;;;;;2082025;28;20422;-82
2021/01/21 00:32:21;;;;;;;2.28;0.60;;;10.20;77.40;;;;;;2082721;28;20037;-82
2021/01/21 00:33:22;;;;;;;2.25;0.90;;;10.20;77.30;;;;;;2083658;28;20128;-82
2021/01/21 00:34:24;;;;;;;2.15;0.70;;;10.30;77.30;;;;;;2089746;28;20037;-82
2021/01/21 00:35:25;;;;;;;1.85;0.70;;;10.20;77.20;;;;;;2097547;28;20029;-81
2021/01/21 00:36:25;;;;;;;2.20;0.75;;;10.30;77.30;;;;;;2084765;28;20040;-82
2021/01/21 00:37:26;;;;;;;2.35;1.00;;;10.30;77.20;;;;;;2091669;28;20424;-82
2021/01/21 00:38:27;;;;;;;1.10;0.60;;;10.30;77.20;;;;;;2073668;28;20076;-82
2021/01/21 00:39:27;;;;;;;1.77;0.60;;;10.30;77.80;;;;;;2057161;28;20037;-82
2021/01/21 00:40:28;;;;;;;3.47;0.90;;;10.30;77.20;;;;;;2057685;28;20489;-82
2021/01/21 00:41:28;;;;;;;2.65;0.77;;;10.20;77.10;;;;;;2096604;28;20597;-82
2021/01/21 00:42:29;;;;;;;2.08;0.70;;;10.30;77.20;;;;;;2106842;28;20035;-82
2021/01/21 00:43:30;;;;;;;2.65;0.80;;;10.30;77.30;;;;;;2089823;28;20445;-83
2021/01/21 00:44:30;;;;;;;2.40;0.95;;;10.30;77.10;;;;;;2083757;28;20037;-83
2021/01/21 00:45:31;;;;;;;3.50;0.85;;;10.30;77.20;;;;;;2082139;28;20029;-83
2021/01/21 00:46:31;;;;;;;1.73;0.63;;;10.30;77.10;;;;;;2087910;28;20021;-83
2021/01/21 00:47:32;;;;;;;1.58;0.60;;;10.30;77.10;;;;;;2090607;28;20128;-83
2021/01/21 00:48:33;;;;;;;1.65;0.60;;;10.30;77.10;;;;;;2087330;28;20608;-83
2021/01/21 00:49:33;;;;;;;2.65;0.68;;;10.30;77.10;;;;;;2087420;28;20430;-83
2021/01/21 00:50:34;;;;;;;2.88;0.70;;;10.30;77.00;;;;;;2090003;28;20033;-83
2021/01/21 00:51:34;;;;;;;4.20;0.85;;;10.30;77.10;;;;;;2103103;28;20024;-83
2021/01/21 00:52:35;;;;;;;1.42;0.70;;;10.30;77.00;;;;;;2081607;28;20029;-83
2021/01/21 00:53:36;;;;;;;2.47;0.98;;;10.30;77.00;;;;;;2081073;28;20036;-83
2021/01/21 00:54:36;;;;;;;1.52;0.70;;;10.30;76.90;;;;;;2089680;28;20028;-83
2021/01/21 00:55:37;;;;;;;2.00;0.70;;;10.30;76.90;;;;;;2081886;28;20049;-83
2021/01/21 00:56:38;;;;;;;2.00;0.60;;;10.30;76.90;;;;;;2086148;28;20025;-83
2021/01/21 00:57:38;;;;;;;1.65;0.60;;;10.30;77.60;;;;;;2102576;28;20031;-83
2021/01/21 00:58:39;;;;;;;1.92;0.70;;;10.30;77.00;;;;;;2097839;28;20071;-82
2021/01/21 00:59:42;;;;;;;1.92;0.70;;;10.30;77.00;;;;;;2087633;28;20071;-82
2021/01/21 01:00:46;;;;;;;1.95;0.90;;;10.30;77.00;;;;;;2081423;28;20069;-82
2021/01/21 01:01:46;;;;;;;1.75;0.63;;;10.30;77.00;;;;;;2070438;28;20464;-83
2021/01/21 01:02:47;;;;;;;3.28;0.70;;;10.30;76.90;;;;;;2065157;28;20081;-82
2021/01/21 01:03:47;;;;;;;3.22;0.77;;;10.40;77.00;;;;;;2080397;28;20056;-83
2021/01/21 01:04:48;;;;;;;2.05;0.77;;;10.40;76.90;;;;;;2088516;28;20116;-82
2021/01/21 01:05:51;;;;;;;2.30;0.60;;;10.40;76.90;;;;;;2072951;28;20026;-83
2021/01/21 01:06:52;;;;;;;1.83;0.88;;;10.40;76.90;;;;;;2088608;28;20067;-83
2021/01/21 01:07:52;;;;;;;1.17;0.60;;;10.40;76.90;;;;;;2082345;28;20029;-83
2021/01/21 01:08:53;;;;;;;2.38;0.70;;;10.40;76.80;;;;;;2070477;28;20027;-83
2021/01/21 01:09:54;;;;;;;2.67;0.65;;;10.40;77.20;;;;;;2090131;28;20021;-83
2021/01/21 01:10:54;;;;;;;2.75;0.70;;;10.40;76.80;;;;;;2082657;28;20530;-83
2021/01/21 01:11:55;;;;;;;3.90;0.90;;;10.40;76.40;;;;;;2085989;28;20030;-83
2021/01/21 01:12:58;;;;;;;1.35;0.65;;;10.40;76.90;;;;;;2097985;28;20031;-83
2021/01/21 01:13:59;;;;;;;1.98;0.63;;;10.50;76.60;;;;;;2084670;28;20411;-83
2021/01/21 01:15:00;;;;;;;3.85;0.98;;;10.40;76.30;;;;;;2090023;28;20029;-82
2021/01/21 01:16:00;;;;;;;3.20;0.63;;;10.40;76.30;;;;;;2082359;28;20068;-83
2021/01/21 01:17:01;;;;;;;3.33;0.90;;;10.40;76.40;;;;;;2074537;28;20428;-83
2021/01/21 01:18:02;;;;;;;3.00;0.63;;;10.40;76.30;;;;;;2084570;28;20516;-83
2021/01/21 01:19:06;;;;;;;2.92;0.80;;;10.40;76.40;;;;;;2089453;28;20475;-83
2021/01/21 01:20:07;;;;;;;3.22;0.75;;;10.40;76.40;;;;;;2074972;28;20026;-83
2021/01/21 01:21:07;;;;;;;4.13;0.65;;;10.40;76.30;;;;;;2079579;28;20116;-82
2021/01/21 01:22:09;;;;;;;2.30;0.80;;;10.40;76.30;;;;;;2090571;28;20029;-83
2021/01/21 01:23:09;;;;;;;1.58;0.60;;;10.40;76.70;;;;;;2074832;28;20030;-83
2021/01/21 01:24:10;;;;;;;1.55;0.80;;;10.40;76.20;;;;;;2083133;28;20043;-82
2021/01/21 01:25:11;;;;;;;2.40;0.70;;;10.40;76.10;;;;;;2090102;28;20043;-83
2021/01/21 01:26:12;;;;;;;2.08;0.77;;;10.40;76.10;;;;;;2090211;28;20017;-82
2021/01/21 01:27:12;;;;;;;2.35;0.60;;;10.40;76.20;;;;;;2090690;28;20040;-82
2021/01/21 01:28:13;;;;;;;3.40;1.02;;;10.50;76.20;;;;;;2081563;28;20091;-82
2021/01/21 01:29:14;;;;;;;1.83;0.75;;;10.40;76.10;;;;;;2080624;28;20033;-83
2021/01/21 01:30:16;;;;;;;1.52;0.50;;;10.50;76.10;;;;;;2071763;28;20037;-82
2021/01/21 01:31:17;;;;;;;1.55;0.60;;;10.40;76.00;;;;;;2089123;28;20025;-83
2021/01/21 01:32:17;;;;;;;0.95;0.55;;;10.40;76.20;;;;;;2089236;28;20033;-82
2021/01/21 01:33:18;;;;;;;2.40;0.65;;;10.40;76.10;;;;;;2094742;28;20406;-83
2021/01/21 01:34:19;;;;;;;1.92;0.60;;;10.40;75.90;;;;;;2076549;28;20048;-82
2021/01/21 01:35:19;;;;;;;1.73;0.55;;;10.40;76.10;;;;;;2089939;28;20080;-83
2021/01/21 01:36:20;;;;;;;2.10;0.60;;;10.40;76.00;;;;;;2090574;28;20029;-83
2021/01/21 01:37:20;;;;;;;3.13;0.88;;;10.40;75.90;;;;;;2080881;28;20530;-83
2021/01/21 01:38:21;;;;;;;1.95;0.60;;;10.50;76.00;;;;;;2090033;28;20090;-82
2021/01/21 01:39:22;;;;;;;2.00;0.60;;;10.40;75.90;;;;;;2085785;28;20029;-83
2021/01/21 01:40:22;;;;;;;2.50;0.80;;;10.50;76.60;;;;;;2082505;28;20021;-83
2021/01/21 01:41:27;;;;;;;2.05;0.77;;;10.50;75.90;;;;;;2077148;28;20056;-82
2021/01/21 01:42:28;;;;;;;2.53;0.90;;;10.50;75.70;;;;;;2071316;28;20058;-82
2021/01/21 01:43:29;;;;;;;2.47;1.13;;;10.50;75.70;;;;;;2083508;28;20050;-82
2021/01/21 01:44:29;;;;;;;2.38;0.80;;;10.50;75.60;;;;;;2083241;28;20128;-83
2021/01/21 01:45:30;;;;;;;2.08;0.88;;;10.50;75.60;;;;;;2081157;28;20136;-83
2021/01/21 01:46:31;;;;;;;2.30;0.73;;;10.50;75.30;;;;;;2089461;28;20068;-82
2021/01/21 01:47:33;;;;;;;2.75;0.80;;;10.50;75.30;;;;;;2106100;28;20148;-82
2021/01/21 01:48:34;;;;;;;1.83;0.70;;;10.50;75.40;;;;;;2089695;28;20032;-82
2021/01/21 01:49:35;;;;;;;3.03;1.00;;;10.60;75.10;;;;;;2082862;28;20047;-82
2021/01/21 01:50:37;;;;;;;2.33;0.85;;;10.60;75.10;;;;;;2065208;28;20117;-83
2021/01/21 01:51:38;;;;;;;1.67;0.77;;;10.60;75.20;;;;;;2078236;28;20029;-82
2021/01/21 01:52:42;;;;;;;2.67;0.80;;;10.60;75.10;;;;;;2081519;28;20108;-83
2021/01/21 01:53:42;;;;;;;2.67;0.80;;;10.60;74.90;;;;;;2075562;28;20033;-83
2021/01/21 01:54:43;;;;;;;2.42;0.95;;;10.60;75.40;;;;;;2072517;28;20544;-82
2021/01/21 01:55:44;;;;;;;2.28;0.80;;;10.60;74.90;;;;;;2073091;28;20022;-82
2021/01/21 01:56:46;;;;;;;1.20;0.63;;;10.60;74.60;;;;;;2076869;28;20435;-82
2021/01/21 01:57:51;;;;;;;2.25;0.77;;;10.60;74.90;;;;;;2089184;28;20025;-83
2021/01/21 01:58:53;;;;;;;1.75;0.75;;;10.60;74.90;;;;;;2088447;28;20080;-82
2021/01/21 01:59:58;;;;;;;3.30;0.70;;;10.60;74.80;;;;;;2088733;28;20529;-83
2021/01/21 02:01:00;;;;;;;2.00;0.70;;;10.60;74.80;;;;;;2089804;28;20025;-82
2021/01/21 02:02:00;;;;;;;2.03;0.80;;;10.60;74.80;;;;;;2087801;28;20039;-83
2021/01/21 02:03:02;;;;;;;4.45;0.80;;;10.70;74.70;;;;;;2087520;28;20391;-83
2021/01/21 02:04:02;;;;;;;3.50;0.80;;;10.70;73.90;;;;;;2083207;28;20033;-83
2021/01/21 02:05:04;;;;;;;2.60;0.80;;;10.70;74.30;;;;;;2087380;28;20024;-83
2021/01/21 02:06:06;;;;;;;2.30;0.73;;;10.70;73.90;;;;;;2076546;28;20034;-82
2021/01/21 02:07:07;;;;;;;1.90;0.63;;;10.70;73.90;;;;;;2080744;28;20566;-83
2021/01/21 02:08:08;;;;;;;2.40;0.77;;;10.80;74.60;;;;;;2071940;28;20044;-82
2021/01/21 02:09:09;;;;;;;1.98;0.80;;;10.80;74.10;;;;;;2080913;28;20029;-83
2021/01/21 02:10:12;;;;;;;1.77;0.70;;;10.80;74.20;;;;;;2096503;28;20059;-82
2021/01/21 02:11:24;;;;;;;3.38;0.68;;;10.80;74.00;;;;;;2081360;28;20396;-83
2021/01/21 02:12:36;;;;;;;1.77;0.60;;;10.80;73.80;;;;;;2074822;28;20117;-83
2021/01/21 02:13:49;;;;;;;3.08;0.60;;;10.80;73.60;;;;;;2082723;28;20126;-83
2021/01/21 02:15:05;;;;;;;1.95;0.80;;;10.80;73.70;;;;;;2081089;28;20029;-83
2021/01/21 02:16:28;;;;;;;1.83;0.60;;;10.80;73.70;;;;;;2086460;28;20025;-83
2021/01/21 02:17:58;;;;;;;1.77;0.60;;;10.80;73.70;;;;;;2089451;28;20068;-83
2021/01/21 02:19:40;;;;;;;1.65;0.68;;;10.90;73.80;;;;;;2081360;28;20041;-83
2021/01/21 02:20:43;;;;;;;3.55;0.80;;;10.80;73.70;;;;;;2080349;28;20021;-83
2021/01/21 02:22:21;;;;;;;2.97;0.90;;;10.80;73.40;;;;;;2081234;28;20108;-83
2021/01/21 02:23:40;;;;;;;4.97;0.85;;;10.80;73.70;;;;;;2089221;28;20067;-83
2021/01/21 02:24:46;;;;;;;2.75;0.70;;;10.80;74.00;;;;;;2084183;28;20116;-84
2021/01/21 02:25:53;;;;;;;2.67;0.98;;;10.80;74.20;;;;;;2073737;28;20014;-83
2021/01/21 02:27:00;;;;;;;2.05;0.70;;;10.70;74.40;;;;;;2088661;28;20108;-84
2021/01/21 02:28:26;;;;;;;2.15;0.85;;;10.70;74.70;;;;;;2088424;28;20074;-83
2021/01/21 02:29:30;;;;;;;1.85;0.68;;;10.70;74.90;;;;;;2081222;28;20060;-83
2021/01/21 02:30:49;;;;;;;2.17;0.57;;;10.60;75.70;;;;;;2086573;28;20036;-83
2021/01/21 02:31:56;;;;;;;3.30;0.93;;;10.60;75.20;;;;;;2088731;28;20017;-83
2021/01/21 02:33:14;;;;;;;2.08;0.80;;;10.60;75.30;;;;;;2094945;28;20547;-83
2021/01/21 02:34:38;;;;;;;2.28;0.80;;;10.60;75.30;;;;;;2090210;28;20498;-83
2021/01/21 02:35:41;;;;;;;1.58;0.70;;;10.50;75.40;;;;;;2072852;28;20587;-83
2021/01/21 02:36:50;;;;;;;3.28;0.70;;;10.50;75.50;;;;;;2079500;28;20039;-83
2021/01/21 02:37:56;;;;;;;2.78;0.80;;;10.50;75.60;;;;;;2085154;28;20029;-83
2021/01/21 02:38:59;;;;;;;3.60;0.82;;;10.50;75.80;;;;;;2084964;28;20124;-84
2021/01/21 02:40:02;;;;;;;1.70;0.77;;;10.50;76.00;;;;;;2095985;28;20120;-83
2021/01/21 02:41:04;;;;;;;1.90;0.80;;;10.50;76.10;;;;;;2096807;28;20569;-83
2021/01/21 02:42:05;;;;;;;1.70;0.50;;;10.50;76.20;;;;;;2087404;28;20033;-83
2021/01/21 02:43:10;;;;;;;2.63;0.70;;;10.40;76.40;;;;;;2086216;28;20510;-84
2021/01/21 02:44:10;;;;;;;2.63;0.88;;;10.40;76.60;;;;;;2093308;28;20438;-83
2021/01/21 02:45:12;;;;;;;2.10;0.80;;;10.40;76.90;;;;;;2088723;28;20052;-83
2021/01/21 02:46:13;;;;;;;2.15;0.70;;;10.30;77.00;;;;;;2095673;28;20069;-83
2021/01/21 02:47:14;;;;;;;2.55;0.70;;;10.30;77.00;;;;;;2080985;28;20084;-82
2021/01/21 02:48:15;;;;;;;1.45;0.60;;;10.30;77.20;;;;;;2064162;28;20492;-82
2021/01/21 02:49:19;;;;;;;2.08;0.70;;;10.30;77.30;;;;;;2083784;28;20031;-82
2021/01/21 02:50:20;;;;;;;2.30;0.82;;;10.20;77.30;;;;;;2080707;28;20045;-82
2021/01/21 02:51:24;;;;;;;2.03;0.60;;;10.20;77.40;;;;;;2084096;28;20027;-82
2021/01/21 02:52:37;;;;;;;2.92;0.80;;;10.20;77.50;;;;;;2081607;28;20116;-83
2021/01/21 02:53:40;;;;;;;3.00;0.68;;;10.20;77.50;;;;;;2088370;28;20032;-82
2021/01/21 02:54:49;;;;;;;3.03;0.80;;;10.20;77.70;;;;;;2089093;28;20449;-82
2021/01/21 02:56:15;;;;;;;1.92;0.50;;;10.20;77.70;;;;;;2081234;28;20021;-83
2021/01/21 02:57:38;;;;;;;3.38;0.80;;;10.20;77.80;;;;;;2089043;28;20028;-83
2021/01/21 02:58:46;;;;;;;2.08;0.70;;;10.20;77.80;;;;;;2082731;28;20039;-83
2021/01/21 02:59:48;;;;;;;1.85;0.60;;;10.20;77.80;;;;;;2081980;28;20037;-83
2021/01/21 03:00:52;;;;;;;1.88;0.70;;;10.20;77.70;;;;;;2081097;28;20511;-83
2021/01/21 03:01:55;;;;;;;1.77;0.80;;;10.20;77.80;;;;;;2092068;28;20450;-83
2021/01/21 03:02:58;;;;;;;2.47;0.90;;;10.20;77.80;;;;;;2095717;28;20020;-83
2021/01/21 03:04:00;;;;;;;2.70;0.90;;;10.20;77.80;;;;;;2087458;28;20499;-83
2021/01/21 03:05:02;;;;;;;3.08;0.80;;;10.20;77.70;;;;;;2081480;28;20036;-82
2021/01/21 03:06:05;;;;;;;2.78;0.80;;;10.30;78.40;;;;;;2094729;28;20574;-82
2021/01/21 03:07:10;;;;;;;2.30;0.80;;;10.30;77.60;;;;;;2096285;28;20025;-82
2021/01/21 03:08:11;;;;;;;1.60;0.63;;;10.30;77.50;;;;;;2089539;28;20028;-83
2021/01/21 03:09:12;;;;;;;2.03;0.70;;;10.40;77.50;;;;;;2082866;28;20531;-82
2021/01/21 03:10:17;;;;;;;2.53;0.80;;;10.40;77.50;;;;;;2087918;28;20074;-82
2021/01/21 03:11:18;;;;;;;1.85;0.80;;;10.40;77.30;;;;;;2094792;28;20024;-82
2021/01/21 03:12:21;;;;;;;1.75;0.63;;;10.50;77.30;;;;;;2080483;28;20057;-82
2021/01/21 03:13:21;;;;;;;1.63;0.63;;;10.50;77.20;;;;;;2081874;28;20475;-83
2021/01/21 03:14:22;;;;;;;1.10;0.60;;;10.50;77.20;;;;;;2093571;28;20036;-83
2021/01/21 03:15:26;;;;;;;3.72;0.73;;;10.50;77.20;;;;;;2087995;28;20094;-83
2021/01/21 03:16:26;;;;;;;3.35;0.70;;;10.50;77.20;;;;;;2088305;28;20480;-83
2021/01/21 03:17:28;;;;;;;2.08;0.70;;;10.60;77.20;;;;;;2089030;28;20021;-83
2021/01/21 03:18:29;;;;;;;1.65;0.52;;;10.60;77.20;;;;;;2086453;28;20121;-83
2021/01/21 03:19:30;;;;;;;2.53;0.70;;;10.60;77.80;;;;;;2079469;28;20522;-83
2021/01/21 03:20:30;;;;;;;1.55;0.60;;;10.60;77.30;;;;;;2080965;28;20026;-83
2021/01/21 03:21:31;;;;;;;3.83;0.70;;;10.60;77.50;;;;;;2088719;28;20028;-82
2021/01/21 03:22:31;;;;;;;1.40;0.60;;;10.60;77.60;;;;;;2093162;28;20119;-82
2021/01/21 03:23:41;;;;;;;3.08;0.60;;;10.60;77.80;;;;;;2072672;28;20083;-83
2021/01/21 03:24:42;;;;;;;0.93;0.47;;;10.60;77.90;;;;;;2073317;28;20103;-83
2021/01/21 03:25:43;;;;;;;1.23;0.60;;;10.50;77.90;;;;;;2071369;28;20096;-83
2021/01/21 03:26:44;;;;;;;1.70;0.70;;;10.50;78.00;;;;;;2089855;28;20059;-82
2021/01/21 03:27:44;;;;;;;3.95;0.70;;;10.50;78.00;;;;;;2080363;28;20113;-83
2021/01/21 03:28:45;;;;;;;2.05;0.82;;;10.60;78.10;;;;;;2055683;28;20039;-82
2021/01/21 03:29:46;;;;;;;2.08;0.70;;;10.50;78.10;;;;;;2079809;28;20033;-82
2021/01/21 03:30:46;;;;;;;1.83;0.60;;;10.50;78.20;;;;;;2096500;28;20442;-82
2021/01/21 03:31:47;;;;;;;2.00;0.77;;;10.60;78.30;;;;;;2080199;28;20025;-83
2021/01/21 03:32:48;;;;;;;1.50;0.55;;;10.60;78.30;;;;;;2079901;28;20053;-83
2021/01/21 03:33:48;;;;;;;1.95;0.60;;;10.60;78.30;;;;;;2086579;28;20025;-82
2021/01/21 03:34:49;;;;;;;2.03;0.80;;;10.60;78.20;;;;;;2086980;28;20029;-83
2021/01/21 03:35:49;;;;;;;1.73;0.63;;;10.60;78.10;;;;;;2077895;28;20330;-83
2021/01/21 03:36:50;;;;;;;1.83;0.60;;;10.70;78.10;;;;;;2079948;28;20095;-83
2021/01/21 03:37:50;;;;;;;1.58;0.60;;;10.70;78.10;;;;;;2072391;28;20104;-83
2021/01/21 03:38:51;;;;;;;2.65;0.80;;;10.70;78.20;;;;;;2074789;28;20034;-83
2021/01/21 03:39:52;;;;;;;2.25;0.80;;;10.70;78.30;;;;;;2068154;28;20442;-83
2021/01/21 03:40:53;;;;;;;2.00;0.80;;;10.70;78.40;;;;;;2091412;28;20036;-83
2021/01/21 03:41:54;;;;;;;2.17;0.60;;;10.70;79.30;;;;;;2085991;28;20514;-83
2021/01/21 03:42:55;;;;;;;2.13;0.57;;;10.60;78.80;;;;;;2087837;28;20074;-83
2021/01/21 03:43:56;;;;;;;2.47;0.68;;;10.60;79.10;;;;;;2095425;28;20048;-83
2021/01/21 03:44:56;;;;;;;2.08;0.65;;;10.60;79.40;;;;;;2080899;28;20037;-83
2021/01/21 03:45:57;;;;;;;2.08;0.70;;;10.60;79.40;;;;;;2080308;28;20018;-82
2021/01/21 03:46:58;;;;;;;4.18;0.70;;;10.60;79.50;;;;;;2087773;28;20585;-83
2021/01/21 03:47:58;;;;;;;1.48;0.77;;;10.50;79.60;;;;;;2072682;28;20028;-83
2021/01/21 03:48:59;;;;;;;1.10;0.50;;;10.60;79.70;;;;;;2080326;28;20068;-82
2021/01/21 03:50:00;;;;;;;1.50;0.60;;;10.50;79.60;;;;;;2096215;28;20047;-83
2021/01/21 03:51:00;;;;;;;1.52;0.50;;;10.50;79.60;;;;;;2082528;28;20368;-83
2021/01/21 03:52:01;;;;;;;1.73;0.70;;;10.50;79.60;;;;;;2084840;28;20123;-83
2021/01/21 03:53:02;;;;;;;1.17;0.50;;;10.50;80.20;;;;;;2088173;28;20029;-82
2021/01/21 03:54:03;;;;;;;2.67;0.50;;;10.60;79.50;;;;;;2086665;28;20482;-83
2021/01/21 03:55:04;;;;;;;1.35;0.63;;;10.60;79.50;;;;;;2075356;28;20026;-83
2021/01/21 03:56:05;;;;;;;1.08;0.60;;;10.60;79.30;;;;;;2080903;28;20029;-83
2021/01/21 03:57:06;;;;;;;1.77;0.60;;;10.70;79.20;;;;;;2087455;28;20033;-83
2021/01/21 03:58:06;;;;;;;1.50;0.55;;;10.70;79.00;;;;;;2088190;28;20021;-83
2021/01/21 03:59:10;;;;;;;1.40;0.57;;;10.80;78.90;;;;;;2078115;28;20030;-83
2021/01/21 04:00:11;;;;;;;2.13;0.60;;;10.80;78.70;;;;;;2084753;28;20500;-83
2021/01/21 04:01:11;;;;;;;1.65;0.50;;;10.80;78.60;;;;;;2088315;28;20561;-83
2021/01/21 04:02:12;;;;;;;1.67;0.60;;;10.90;78.60;;;;;;2072805;28;20116;-84
2021/01/21 04:03:12;;;;;;;1.27;0.50;;;10.90;78.50;;;;;;2082781;28;20033;-82
2021/01/21 04:04:13;;;;;;;3.50;0.60;;;10.90;78.50;;;;;;2095098;28;20428;-83
2021/01/21 04:05:14;;;;;;;1.63;0.60;;;10.90;78.40;;;;;;2074104;28;20034;-83
2021/01/21 04:06:14;;;;;;;1.30;0.52;;;11.00;78.50;;;;;;2079764;28;20028;-84
2021/01/21 04:07:15;;;;;;;1.45;0.50;;;11.00;78.40;;;;;;2089277;28;20466;-83
2021/01/21 04:08:16;;;;;;;1.25;0.50;;;11.00;78.50;;;;;;2098519;28;20037;-84
2021/01/21 04:09:17;;;;;;;2.90;0.50;;;11.00;78.50;;;;;;2072970;28;20452;-83
2021/01/21 04:10:17;;;;;;;2.90;0.68;;;11.10;78.80;;;;;;2076309;28;20076;-84
2021/01/21 04:11:18;;;;;;;2.03;0.68;;;11.00;78.80;;;;;;2067198;28;20026;-83
2021/01/21 04:12:19;;;;;;;1.52;0.50;;;11.00;79.10;;;;;;2057791;28;20100;-84
2021/01/21 04:13:19;;;;;;;1.02;0.50;;;11.00;79.30;;;;;;2076009;28;20030;-84
2021/01/21 04:14:20;;;;;;;1.13;0.50;;;11.00;79.50;;;;;;2077146;28;20021;-83
2021/01/21 04:15:21;;;;;;;1.58;0.57;;;10.90;79.70;;;;;;2097790;28;20025;-84
2021/01/21 04:16:21;;;;;;;1.92;0.80;;;10.90;79.70;;;;;;2082222;28;20037;-83
2021/01/21 04:17:22;;;;;;;3.15;0.50;;;10.90;80.10;;;;;;2075054;28;20479;-83
2021/01/21 04:18:22;;;;;;;2.03;0.65;;;10.80;80.20;;;;;;2097913;28;20048;-82
2021/01/21 04:19:23;;;;;;;0.82;0.50;;;10.80;80.40;;;;;;2081240;28;20112;-83
2021/01/21 04:20:24;;;;;;;1.58;0.60;;;10.80;80.50;;;;;;2065889;28;20030;-84
2021/01/21 04:21:24;;;;;;;1.67;0.50;;;10.70;80.70;;;;;;2083939;28;20029;-83
2021/01/21 04:22:25;;;;;;;1.05;0.40;;;10.70;80.90;;;;;;2090623;28;20066;-82
2021/01/21 04:23:25;;;;;;;0.75;0.52;;;10.70;81.00;;;;;;2074554;28;20057;-83
2021/01/21 04:24:26;;;;;;;1.65;0.50;;;10.70;81.30;;;;;;2062645;28;20041;-84
2021/01/21 04:25:27;;;;;;;1.55;0.68;;;10.60;81.40;;;;;;2066532;28;20042;-83
2021/01/21 04:26:27;;;;;;;4.00;0.70;;;10.60;81.70;;;;;;2083990;28;20044;-84
2021/01/21 04:27:28;;;;;;;2.10;0.60;;;10.50;82.20;;;;;;2090133;28;20454;-83
2021/01/21 04:28:30;;;;;;;2.13;0.60;;;10.40;82.30;;;;;;2096121;28;20375;-83
2021/01/21 04:29:30;;;;;;;2.15;0.70;;;10.20;82.10;;;;;;2085242;28;20060;-83
2021/01/21 04:30:31;;;;;;;1.60;0.47;;;9.90;82.20;;;;;;2082282;28;20357;-84
2021/01/21 04:31:32;;;;;;;1.85;0.40;;;9.60;82.60;;;;;;2081491;28;20369;-83
2021/01/21 04:32:32;;;;;;;1.83;0.32;;;9.30;83.00;;;;;;2098597;28;20136;-83
2021/01/21 04:33:33;;;;;;;2.65;0.40;;;9.10;83.40;;;;;;2088610;28;20483;-82
2021/01/21 04:34:33;;;;;;;2.38;0.52;;;8.90;83.90;;;;;;2080422;28;20557;-83
2021/01/21 04:35:34;;;;;;;1.90;0.30;;;8.70;84.30;;;;;;2090294;28;20144;-83
2021/01/21 04:36:35;;;;;;;1.08;0.30;;;8.60;84.90;;;;;;2082019;28;20047;-83
2021/01/21 04:37:36;;;;;;;3.55;0.52;;;8.40;85.10;;;;;;2065789;28;20461;-83
2021/01/21 04:38:36;;;;;;;1.77;0.30;;;8.30;85.40;;;;;;2097336;28;20054;-82
2021/01/21 04:39:37;;;;;;;1.85;0.30;;;8.20;85.60;;;;;;2093284;28;20120;-82
2021/01/21 04:40:38;;;;;;;1.20;0.30;;;8.10;85.90;;;;;;2090217;28;20027;-82
2021/01/21 04:41:39;;;;;;;3.25;0.30;;;8.00;86.00;;;;;;2084496;28;20040;-82
2021/01/21 04:42:40;;;;;;;1.92;0.30;;;7.90;86.20;;;;;;2087915;28;20036;-81
2021/01/21 04:43:41;;;;;;;1.15;0.32;;;7.90;86.30;;;;;;2089683;28;20090;-82
2021/01/21 04:44:42;;;;;;;2.00;0.28;;;7.80;86.40;;;;;;2082377;28;20434;-82
2021/01/21 04:45:42;;;;;;;1.15;0.20;;;7.80;86.40;;;;;;2079144;28;20580;-82
2021/01/21 04:46:43;;;;;;;2.53;0.30;;;7.70;86.40;;;;;;2089365;28;20014;-83
2021/01/21 04:47:44;;;;;;;2.28;0.30;;;7.60;86.10;;;;;;2090221;28;20053;-83
2021/01/21 04:48:46;;;;;;;2.47;0.38;;;7.60;86.20;;;;;;2082005;28;20495;-82
2021/01/21 04:49:47;;;;;;;2.20;0.50;;;7.60;86.20;;;;;;2082921;28;20025;-82
2021/01/21 04:50:49;;;;;;;1.85;0.30;;;7.50;86.20;;;;;;2085182;28;20395;-82
2021/01/21 04:51:51;;;;;;;1.80;0.30;;;7.50;86.20;;;;;;2089374;28;20043;-83
2021/01/21 04:52:52;;;;;;;1.90;0.28;;;7.50;86.20;;;;;;2088409;28;20033;-82
2021/01/21 04:54:00;;;;;;;0.95;0.20;;;7.40;86.20;;;;;;2087004;28;20032;-82
2021/01/21 04:55:20;;;;;;;0.47;0.20;;;7.40;86.30;;;;;;2089767;28;20033;-82
2021/01/21 04:56:30;;;;;;;3.30;0.30;;;7.40;86.30;;;;;;2084047;28;20044;-82
2021/01/21 04:57:48;;;;;;;1.67;0.40;;;7.40;86.30;;;;;;2078807;28;20048;-82
2021/01/21 04:58:51;;;;;;;1.27;0.30;;;7.30;86.20;;;;;;2075753;28;20037;-82
2021/01/21 04:59:53;;;;;;;2.58;0.30;;;7.30;86.30;;;;;;2098819;28;20100;-82
2021/01/21 05:00:56;;;;;;;2.00;0.22;;;7.30;86.40;;;;;;2095048;28;20557;-82
2021/01/21 05:01:59;;;;;;;2.85;0.43;;;7.20;86.40;;;;;;2079088;28;20070;-82
2021/01/21 05:03:01;;;;;;;3.13;0.60;;;7.20;86.50;;;;;;2098703;28;20027;-82
2021/01/21 05:04:03;;;;;;;1.05;0.30;;;7.20;86.60;;;;;;2093854;28;20017;-82
2021/01/21 05:05:06;;;;;;;1.50;0.30;;;7.10;86.60;;;;;;2090042;28;20446;-82
2021/01/21 05:06:07;;;;;;;2.97;0.60;;;7.10;86.60;;;;;;2097159;28;20191;-82
2021/01/21 05:07:08;;;;;;;4.20;0.50;;;7.10;86.70;;;;;;2088271;28;20112;-82
2021/01/21 05:08:09;;;;;;;1.83;0.40;;;7.00;86.60;;;;;;2082933;28;20022;-82
2021/01/21 05:09:09;;;;;;;1.42;0.40;;;7.00;86.70;;;;;;2090771;28;20044;-82
2021/01/21 05:10:12;;;;;;;2.00;0.30;;;7.00;86.70;;;;;;2082037;28;20041;-83
2021/01/21 05:11:13;;;;;;;3.42;0.40;;;7.00;86.60;;;;;;2068878;28;20034;-82
2021/01/21 05:12:14;;;;;;;4.75;0.55;;;7.00;86.60;;;;;;2072878;28;20121;-82
2021/01/21 05:13:14;;;;;;;1.42;0.50;;;6.90;86.70;;;;;;2089066;28;20495;-83
2021/01/21 05:14:15;;;;;;;1.88;0.30;;;6.90;86.70;;;;;;2076654;28;20072;-83
2021/01/21 05:15:16;;;;;;;3.70;0.40;;;6.90;86.80;;;;;;2065448;28;20297;-82
2021/01/21 05:16:17;;;;;;;1.85;0.40;;;6.90;86.90;;;;;;2072957;28;20093;-81
2021/01/21 05:17:20;;;;;;;1.98;0.50;;;6.90;87.00;;;;;;2073211;28;20030;-82
2021/01/21 05:18:28;;;;;;;3.70;0.50;;;6.90;86.90;;;;;;2070598;28;20090;-82
2021/01/21 05:19:32;;;;;;;3.45;0.60;;;6.90;86.80;;;;;;2080071;28;20607;-82
2021/01/21 05:20:35;;;;;;;2.92;0.40;;;6.90;86.70;;;;;;2081544;28;20033;-82
2021/01/21 05:21:39;;;;;;;1.33;0.40;;;6.80;86.70;;;;;;2081218;28;20419;-82
2021/01/21 05:22:40;;;;;;;2.03;0.40;;;6.80;86.70;;;;;;2095366;28;20056;-82
2021/01/21 05:23:42;;;;;;;1.17;0.20;;;6.80;86.70;;;;;;2089929;28;20027;-82
2021/01/21 05:24:45;;;;;;;1.48;0.40;;;6.80;86.70;;;;;;2081886;28;20048;-82
2021/01/21 05:25:45;;;;;;;1.00;0.25;;;6.80;86.70;;;;;;2090079;28;20119;-83
2021/01/21 05:26:46;;;;;;;1.63;0.40;;;6.80;86.80;;;;;;2085309;28;20062;-82